createdAt,value
2023-01-10T00:00:04.954Z,4.82
2023-01-10T00:02:31.992Z,4.73
2023-01-10T00:04:58.712Z,4.65
2023-01-10T00:07:25.333Z,4.83
2023-01-10T00:09:51.952Z,4.84
2023-01-10T00:12:37.334Z,4.87
2023-01-10T00:15:04.239Z,4.84
2023-01-10T00:17:30.962Z,4.83
2023-01-10T00:19:57.579Z,4.83
2023-01-10T00:22:25.900Z,4.78
2023-01-10T00:24:52.733Z,4.76
2023-01-10T00:27:22.798Z,4.79
2023-01-10T00:29:52.365Z,4.83
2023-01-10T00:32:20.286Z,4.85
2023-01-10T00:34:47.439Z,4.86
2023-01-10T00:37:14.768Z,4.92
2023-01-10T00:39:41.428Z,4.95
2023-01-10T00:42:28.869Z,4.95
2023-01-10T00:44:55.658Z,4.99
2023-01-10T00:47:22.307Z,4.98
2023-01-10T00:49:48.983Z,5.00
2023-01-10T00:52:15.597Z,4.97
2023-01-10T00:54:42.216Z,4.95
2023-01-10T00:57:08.876Z,4.95
2023-01-10T00:59:35.537Z,5.00
2023-01-10T01:02:02.217Z,5.06
2023-01-10T01:04:34.131Z,5.04
2023-01-10T01:07:02.155Z,5.04
2023-01-10T01:09:30.408Z,4.99
2023-01-10T01:11:57.628Z,5.00
2023-01-10T01:14:24.988Z,4.96
2023-01-10T01:16:51.755Z,4.96
2023-01-10T01:19:18.488Z,4.98
2023-01-10T01:21:45.199Z,4.86
2023-01-10T01:24:12.050Z,4.91
2023-01-10T01:26:39.864Z,4.81
2023-01-10T01:29:06.556Z,4.87
2023-01-10T01:31:33.220Z,4.82
2023-01-10T01:33:59.941Z,4.85
2023-01-10T01:36:26.593Z,4.65
2023-01-10T01:38:53.180Z,4.65
2023-01-10T01:41:38.317Z,4.67
2023-01-10T01:44:08.025Z,4.71
2023-01-10T01:46:38.695Z,4.64
2023-01-10T01:49:09.292Z,4.68
2023-01-10T01:51:36.000Z,4.65
2023-01-10T01:54:07.710Z,4.65
2023-01-10T01:56:55.991Z,4.66
2023-01-10T01:59:30.469Z,4.67
2023-01-10T02:02:03.964Z,4.66
2023-01-10T02:04:38.375Z,4.72
2023-01-10T02:07:05.582Z,4.71
2023-01-10T02:09:42.903Z,4.69
2023-01-10T02:12:10.368Z,4.69
2023-01-10T02:14:38.437Z,4.67
2023-01-10T02:17:05.835Z,4.66
2023-01-10T02:19:38.156Z,4.66
2023-01-10T02:22:45.988Z,4.61
2023-01-10T02:25:15.498Z,4.63
2023-01-10T02:28:06.941Z,4.63
2023-01-10T02:31:13.911Z,4.68
2023-01-10T02:33:58.206Z,4.65
2023-01-10T02:36:40.800Z,4.70
2023-01-10T02:39:29.805Z,4.72
2023-01-10T02:41:58.072Z,4.83
2023-01-10T02:44:46.632Z,4.76
2023-01-10T02:47:14.514Z,4.67
2023-01-10T02:49:51.727Z,4.75
2023-01-10T02:52:27.988Z,4.79
2023-01-10T02:54:59.738Z,4.80
2023-01-10T02:58:15.863Z,4.85
2023-01-10T03:00:48.552Z,4.86
2023-01-10T03:03:20.500Z,4.86
2023-01-10T03:05:53.307Z,4.80
2023-01-10T03:08:30.864Z,4.89
2023-01-10T03:11:03.278Z,4.81
2023-01-10T03:13:52.071Z,4.81
2023-01-10T03:16:23.063Z,4.82
2023-01-10T03:18:58.247Z,4.82
2023-01-10T03:21:27.662Z,4.86
2023-01-10T03:23:58.336Z,4.85
2023-01-10T03:26:35.987Z,4.85
2023-01-10T03:29:08.015Z,4.83
2023-01-10T03:31:40.794Z,4.84
2023-01-10T03:34:07.506Z,4.87
2023-01-10T03:36:45.941Z,4.85
2023-01-10T03:39:40.383Z,4.85
2023-01-10T03:42:20.797Z,4.86
2023-01-10T03:45:09.601Z,4.87
2023-01-10T03:47:41.336Z,4.83
2023-01-10T03:50:18.822Z,4.87
2023-01-10T03:52:45.740Z,4.86
2023-01-10T03:55:15.066Z,4.89
2023-01-10T03:57:45.769Z,4.88
2023-01-10T04:00:13.930Z,4.86
2023-01-10T04:02:40.681Z,4.86
2023-01-10T04:05:07.955Z,4.83
2023-01-10T04:07:34.997Z,4.80
2023-01-10T04:10:01.592Z,4.80
2023-01-10T04:12:28.364Z,4.75
2023-01-10T04:14:55.297Z,4.71
2023-01-10T04:17:22.105Z,4.65
2023-01-10T04:19:48.937Z,4.64
2023-01-10T04:22:15.643Z,4.62
2023-01-10T04:24:44.231Z,4.64
2023-01-10T04:27:11.141Z,4.64
2023-01-10T04:29:37.891Z,4.65
2023-01-10T04:32:04.720Z,4.64
2023-01-10T04:34:31.433Z,4.62
2023-01-10T04:36:58.057Z,4.62
2023-01-10T04:39:24.762Z,4.66
2023-01-10T04:41:51.465Z,4.65
2023-01-10T04:44:18.134Z,4.63
2023-01-10T04:46:44.896Z,4.66
2023-01-10T04:49:11.697Z,4.54
2023-01-10T04:51:38.463Z,4.55
2023-01-10T04:54:05.244Z,4.62
2023-01-10T04:56:31.895Z,4.63
2023-01-10T04:58:58.793Z,4.67
2023-01-10T05:01:26.700Z,4.66
2023-01-10T05:03:56.425Z,4.74
2023-01-10T05:06:24.389Z,4.72
2023-01-10T05:08:51.119Z,4.67
2023-01-10T05:11:17.839Z,4.67
2023-01-10T05:13:46.467Z,4.65
2023-01-10T05:16:14.554Z,4.68
2023-01-10T05:18:41.547Z,4.71
2023-01-10T05:21:10.662Z,4.68
2023-01-10T05:23:38.057Z,4.65
2023-01-10T05:26:25.104Z,4.63
2023-01-10T05:28:51.847Z,4.65
2023-01-10T05:31:20.027Z,4.63
2023-01-10T05:33:48.474Z,4.63
2023-01-10T05:36:15.747Z,4.58
2023-01-10T05:38:42.429Z,4.56
2023-01-10T05:41:09.316Z,4.43
2023-01-10T05:43:36.164Z,4.32
2023-01-10T05:46:03.294Z,4.41
2023-01-10T05:48:30.022Z,4.32
2023-01-10T05:50:57.805Z,4.21
2023-01-10T05:53:24.575Z,4.12
2023-01-10T05:55:59.549Z,4.04
2023-01-10T05:58:26.530Z,4.07
2023-01-10T06:00:54.899Z,4.02
2023-01-10T06:03:21.716Z,4.01
2023-01-10T06:05:49.100Z,3.99
2023-01-10T06:08:16.127Z,4.05
2023-01-10T06:10:43.381Z,3.98
2023-01-10T06:13:10.255Z,3.95
2023-01-10T06:15:37.266Z,3.96
2023-01-10T06:18:04.585Z,3.90
2023-01-10T06:20:31.442Z,3.90
2023-01-10T06:22:58.997Z,3.90
2023-01-10T06:25:25.913Z,3.93
2023-01-10T06:27:52.540Z,3.80
2023-01-10T06:30:19.493Z,3.81
2023-01-10T06:32:46.333Z,3.77
2023-01-10T06:35:12.991Z,3.72
2023-01-10T06:37:39.709Z,3.76
2023-01-10T06:40:07.033Z,3.78
2023-01-10T06:42:33.751Z,3.68
2023-01-10T06:45:00.561Z,3.71
2023-01-10T06:47:27.275Z,3.65
2023-01-10T06:49:54.191Z,3.75
2023-01-10T06:52:21.035Z,3.58
2023-01-10T06:54:49.139Z,3.63
2023-01-10T06:57:15.716Z,3.67
2023-01-10T06:59:42.405Z,3.73
2023-01-10T07:02:11.712Z,3.67
2023-01-10T07:04:38.436Z,3.74
2023-01-10T07:07:05.143Z,3.71
2023-01-10T07:09:31.749Z,3.65
2023-01-10T07:11:58.650Z,3.56
2023-01-10T07:14:25.435Z,3.50
2023-01-10T07:16:52.113Z,3.55
2023-01-10T07:19:20.122Z,3.57
2023-01-10T07:21:47.079Z,3.58
2023-01-10T07:24:13.775Z,3.61
2023-01-10T07:26:40.716Z,3.52
2023-01-10T07:29:07.424Z,3.56
2023-01-10T07:31:34.263Z,3.66
2023-01-10T07:34:01.049Z,3.60
2023-01-10T07:36:27.784Z,3.68
2023-01-10T07:38:54.550Z,3.67
2023-01-10T07:41:21.320Z,4.02
2023-01-10T07:43:49.107Z,4.13
2023-01-10T07:46:16.149Z,3.99
2023-01-10T07:48:42.981Z,4.21
2023-01-10T07:51:09.950Z,4.42
2023-01-10T07:53:36.550Z,4.40
2023-01-10T07:56:04.605Z,4.92
2023-01-10T07:58:31.921Z,5.22
2023-01-10T08:01:03.719Z,5.26
2023-01-10T08:03:30.776Z,5.18
2023-01-10T08:06:00.136Z,5.06
2023-01-10T08:08:27.412Z,5.47
2023-01-10T08:10:54.381Z,5.35
2023-01-10T08:13:21.094Z,6.21
2023-01-10T08:15:50.518Z,6.31
2023-01-10T08:18:17.585Z,5.60
2023-01-10T08:20:44.268Z,5.53
2023-01-10T08:23:10.913Z,5.82
2023-01-10T08:25:39.484Z,5.55
2023-01-10T08:28:06.500Z,5.61
2023-01-10T08:30:33.430Z,5.23
2023-01-10T08:33:02.958Z,5.27
2023-01-10T08:35:29.886Z,5.39
2023-01-10T08:38:00.362Z,5.57
2023-01-10T08:40:27.627Z,5.51
2023-01-10T08:43:03.448Z,5.02
2023-01-10T08:45:30.713Z,5.21
2023-01-10T08:47:57.702Z,5.32
2023-01-10T08:50:25.238Z,5.23
2023-01-10T08:52:52.189Z,5.37
2023-01-10T08:55:19.878Z,5.64
2023-01-10T08:57:46.775Z,5.57
2023-01-10T09:00:16.741Z,5.59
2023-01-10T09:02:43.837Z,5.74
2023-01-10T09:05:22.328Z,5.92
2023-01-10T09:07:54.319Z,5.58
2023-01-10T09:10:21.646Z,5.53
2023-01-10T09:12:57.444Z,5.74
2023-01-10T09:15:27.578Z,5.65
2023-01-10T09:17:59.314Z,5.75
2023-01-10T09:20:27.331Z,5.85
2023-01-10T09:22:54.580Z,5.72
2023-01-10T09:25:21.378Z,5.83
2023-01-10T09:27:48.387Z,5.72
2023-01-10T09:30:15.429Z,5.92
2023-01-10T09:32:42.153Z,6.07
2023-01-10T09:35:08.915Z,6.11
2023-01-10T09:37:35.761Z,6.08
2023-01-10T09:40:02.601Z,6.21
2023-01-10T09:42:57.426Z,6.19
2023-01-10T09:45:52.356Z,6.38
2023-01-10T09:48:27.237Z,6.31
2023-01-10T09:51:10.043Z,6.49
2023-01-10T09:53:40.036Z,6.55
2023-01-10T09:56:08.730Z,7.07
2023-01-10T09:58:38.564Z,6.93
2023-01-10T10:01:11.711Z,6.69
2023-01-10T10:03:48.634Z,6.92
2023-01-10T10:06:15.515Z,7.09
2023-01-10T10:08:45.678Z,7.19
2023-01-10T10:11:27.337Z,7.48
2023-01-10T10:14:07.576Z,7.67
2023-01-10T10:16:41.613Z,7.24
2023-01-10T10:19:26.636Z,7.07
2023-01-10T10:21:59.161Z,7.37
2023-01-10T10:25:04.654Z,6.95
2023-01-10T10:27:37.346Z,7.28
2023-01-10T10:30:30.245Z,7.37
2023-01-10T10:33:09.596Z,7.33
2023-01-10T10:35:40.848Z,7.25
2023-01-10T10:38:39.356Z,7.43
2023-01-10T10:41:17.047Z,7.47
2023-01-10T10:43:46.134Z,7.20
2023-01-10T10:46:14.885Z,7.25
2023-01-10T10:48:59.026Z,7.30
2023-01-10T10:51:28.057Z,7.29
2023-01-10T10:53:56.813Z,7.26
2023-01-10T10:56:25.670Z,7.23
2023-01-10T10:58:55.786Z,7.25
2023-01-10T11:01:25.553Z,7.27
2023-01-10T11:03:58.484Z,7.58
2023-01-10T11:06:29.097Z,7.41
2023-01-10T11:09:00.131Z,7.00
2023-01-10T11:11:34.433Z,7.07
2023-01-10T11:14:03.838Z,6.92
2023-01-10T11:16:37.294Z,6.90
2023-01-10T11:19:11.361Z,6.97
2023-01-10T11:21:40.916Z,7.14
2023-01-10T11:24:39.552Z,7.19
2023-01-10T11:27:21.911Z,7.24
2023-01-10T11:30:00.853Z,7.12
2023-01-10T11:32:40.115Z,7.11
2023-01-10T11:35:17.300Z,6.95
2023-01-10T11:37:44.068Z,6.70
2023-01-10T11:40:16.031Z,6.67
2023-01-10T11:42:43.299Z,6.63
2023-01-10T11:45:21.354Z,6.90
2023-01-10T11:47:53.556Z,7.08
2023-01-10T11:50:27.549Z,6.89
2023-01-10T11:52:55.485Z,7.06
2023-01-10T11:55:46.764Z,6.92
2023-01-10T11:58:15.233Z,7.04
2023-01-10T12:00:48.261Z,7.31
2023-01-10T12:03:28.467Z,7.35
2023-01-10T12:05:58.587Z,7.30
2023-01-10T12:08:29.770Z,7.16
2023-01-10T12:10:59.107Z,7.17
2023-01-10T12:13:28.285Z,7.25
2023-01-10T12:16:17.421Z,7.27
2023-01-10T12:18:44.499Z,7.16
2023-01-10T12:21:14.262Z,7.18
2023-01-10T12:23:44.580Z,7.13
2023-01-10T12:26:13.848Z,7.27
2023-01-10T12:28:58.744Z,7.26
2023-01-10T12:31:26.268Z,7.45
2023-01-10T12:34:02.923Z,7.23
2023-01-10T12:36:32.580Z,7.20
2023-01-10T12:39:19.671Z,7.15
2023-01-10T12:42:12.964Z,7.21
2023-01-10T12:44:42.859Z,7.26
2023-01-10T12:47:34.014Z,7.25
2023-01-10T12:50:14.027Z,7.12
2023-01-10T12:52:49.063Z,7.03
2023-01-10T12:55:21.711Z,6.77
2023-01-10T12:57:53.955Z,6.83
2023-01-10T13:00:48.680Z,6.92
2023-01-10T13:03:36.249Z,6.85
2023-01-10T13:06:03.597Z,6.92
2023-01-10T13:08:34.694Z,7.06
2023-01-10T13:11:03.063Z,6.97
2023-01-10T13:13:52.321Z,6.98
2023-01-10T13:16:35.823Z,6.93
2023-01-10T13:19:08.609Z,7.05
2023-01-10T13:21:36.737Z,6.76
2023-01-10T13:24:07.932Z,6.93
2023-01-10T13:26:46.857Z,7.02
2023-01-10T13:29:20.047Z,7.18
2023-01-10T13:31:49.777Z,7.00
2023-01-10T13:34:19.294Z,6.93
2023-01-10T13:36:56.811Z,7.09
2023-01-10T13:39:37.266Z,6.83
2023-01-10T13:42:22.209Z,6.82
2023-01-10T13:45:01.387Z,6.98
2023-01-10T13:47:40.303Z,6.97
2023-01-10T13:50:36.470Z,6.86
2023-01-10T13:53:03.887Z,6.84
2023-01-10T13:55:46.596Z,6.74
2023-01-10T13:58:16.288Z,6.74
2023-01-10T14:01:14.129Z,6.88
2023-01-10T14:03:52.425Z,6.91
2023-01-10T14:06:28.457Z,6.94
2023-01-10T14:09:00.508Z,6.97
2023-01-10T14:11:49.258Z,6.88
2023-01-10T14:14:30.004Z,6.99
2023-01-10T14:17:23.854Z,6.80
2023-01-10T14:20:12.340Z,6.84
2023-01-10T14:22:58.561Z,6.77
2023-01-10T14:25:26.849Z,6.63
2023-01-10T14:27:55.153Z,6.57
2023-01-10T14:30:37.209Z,6.59
2023-01-10T14:33:19.438Z,6.48
2023-01-10T14:35:50.424Z,6.47
2023-01-10T14:38:25.991Z,6.45
2023-01-10T14:41:01.111Z,6.42
2023-01-10T14:43:33.964Z,6.39
2023-01-10T14:46:22.773Z,6.35
2023-01-10T14:48:52.177Z,6.37
2023-01-10T14:51:23.725Z,6.32
2023-01-10T14:54:02.147Z,6.32
2023-01-10T14:56:30.292Z,6.25
2023-01-10T14:58:59.621Z,6.22
2023-01-10T15:01:29.990Z,6.19
2023-01-10T15:03:57.564Z,6.19
2023-01-10T15:06:26.070Z,6.15
2023-01-10T15:08:58.422Z,6.06
2023-01-10T15:11:27.181Z,6.07
2023-01-10T15:13:59.870Z,6.07
2023-01-10T15:16:28.742Z,6.01
2023-01-10T15:18:56.814Z,5.98
2023-01-10T15:21:24.557Z,5.97
2023-01-10T15:23:51.843Z,5.94
2023-01-10T15:26:37.295Z,5.94
2023-01-10T15:29:19.478Z,5.83
2023-01-10T15:31:46.757Z,5.80
2023-01-10T15:34:19.887Z,5.78
2023-01-10T15:36:51.452Z,5.77
2023-01-10T15:39:24.119Z,5.79
2023-01-10T15:41:56.999Z,5.73
2023-01-10T15:44:24.791Z,5.72
2023-01-10T15:46:57.929Z,5.75
2023-01-10T15:49:28.244Z,5.74
2023-01-10T15:51:54.999Z,5.70
2023-01-10T15:54:24.262Z,5.72
2023-01-10T15:56:53.608Z,5.75
2023-01-10T15:59:23.012Z,5.76
2023-01-10T16:02:25.766Z,5.70
2023-01-10T16:04:57.873Z,5.72
2023-01-10T16:07:36.138Z,5.71
2023-01-10T16:10:15.562Z,5.69
2023-01-10T16:13:01.517Z,5.68
2023-01-10T16:15:35.564Z,5.72
2023-01-10T16:18:02.675Z,5.60
2023-01-10T16:20:32.252Z,5.69
2023-01-10T16:22:59.996Z,5.64
2023-01-10T16:25:47.818Z,5.61
2023-01-10T16:28:16.578Z,5.72
2023-01-10T16:30:46.765Z,5.78
2023-01-10T16:33:17.668Z,5.76
2023-01-10T16:35:45.641Z,5.66
2023-01-10T16:38:13.525Z,5.76
2023-01-10T16:40:43.000Z,5.78
2023-01-10T16:43:23.442Z,5.74
2023-01-10T16:46:00.176Z,5.81
2023-01-10T16:48:29.124Z,5.80
2023-01-10T16:51:05.823Z,5.76
2023-01-10T16:53:32.443Z,5.70
2023-01-10T16:55:59.100Z,5.75
2023-01-10T16:58:25.757Z,5.68
2023-01-10T17:00:52.831Z,5.68
2023-01-10T17:03:24.569Z,5.69
2023-01-10T17:05:51.739Z,5.76
2023-01-10T17:08:23.722Z,5.77
2023-01-10T17:10:53.916Z,5.78
2023-01-10T17:13:25.665Z,5.79
2023-01-10T17:15:52.437Z,5.80
2023-01-10T17:18:19.286Z,5.70
2023-01-10T17:20:46.105Z,5.70
2023-01-10T17:23:15.150Z,5.65
2023-01-10T17:25:42.316Z,5.65
2023-01-10T17:28:11.773Z,5.74
2023-01-10T17:30:42.756Z,5.78
2023-01-10T17:33:13.382Z,5.63
2023-01-10T17:35:41.475Z,5.65
2023-01-10T17:38:12.011Z,5.50
2023-01-10T17:40:43.921Z,5.65
2023-01-10T17:43:11.414Z,5.62
2023-01-10T17:45:42.600Z,5.59
2023-01-10T17:48:09.890Z,5.57
2023-01-10T17:50:37.035Z,5.45
2023-01-10T17:53:03.738Z,5.48
2023-01-10T17:55:30.551Z,5.44
2023-01-10T17:57:57.290Z,5.41
2023-01-10T18:00:24.116Z,5.37
2023-01-10T18:02:51.106Z,5.31
2023-01-10T18:05:18.171Z,5.30
2023-01-10T18:07:44.989Z,5.26
2023-01-10T18:10:11.873Z,5.25
2023-01-10T18:12:38.626Z,5.22
2023-01-10T18:15:05.792Z,5.18
2023-01-10T18:17:32.564Z,5.21
2023-01-10T18:19:59.204Z,5.14
2023-01-10T18:22:44.642Z,5.14
2023-01-10T18:25:11.398Z,5.12
2023-01-10T18:27:38.102Z,5.04
2023-01-10T18:30:05.241Z,5.03
2023-01-10T18:32:32.833Z,5.02
2023-01-10T18:35:00.058Z,5.03
2023-01-10T18:37:26.860Z,4.98
2023-01-10T18:39:53.650Z,4.95
2023-01-10T18:42:20.460Z,4.94
2023-01-10T18:44:47.178Z,4.92
2023-01-10T18:47:20.639Z,4.90
2023-01-10T18:49:48.335Z,4.87
2023-01-10T18:52:16.762Z,4.87
2023-01-10T18:54:43.467Z,4.90
2023-01-10T18:57:10.100Z,4.89
2023-01-10T18:59:39.749Z,4.91
2023-01-10T19:02:10.297Z,4.88
2023-01-10T19:04:37.095Z,4.88
2023-01-10T19:07:03.688Z,4.85
2023-01-10T19:09:30.385Z,4.88
2023-01-10T19:11:57.206Z,4.86
2023-01-10T19:14:23.859Z,4.89
2023-01-10T19:16:50.601Z,4.89
2023-01-10T19:19:17.317Z,4.86
2023-01-10T19:21:45.308Z,4.90
2023-01-10T19:24:22.937Z,4.85
2023-01-10T19:26:50.355Z,4.87
2023-01-10T19:29:17.455Z,4.93
2023-01-10T19:31:44.826Z,4.90
2023-01-10T19:34:12.709Z,4.90
2023-01-10T19:36:41.735Z,4.92
2023-01-10T19:39:09.925Z,4.94
2023-01-10T19:41:38.309Z,4.92
2023-01-10T19:44:12.152Z,4.97
2023-01-10T19:46:40.378Z,4.98
2023-01-10T19:49:08.658Z,5.03
2023-01-10T19:51:39.413Z,5.08
2023-01-10T19:54:07.882Z,5.09
2023-01-10T19:56:35.531Z,5.09
2023-01-10T19:59:02.217Z,5.09
2023-01-10T20:01:30.791Z,5.11
2023-01-10T20:04:01.208Z,5.13
2023-01-10T20:06:29.957Z,5.13
2023-01-10T20:08:57.540Z,5.13
2023-01-10T20:11:26.130Z,5.17
2023-01-10T20:13:53.603Z,5.19
2023-01-10T20:16:23.026Z,5.19
2023-01-10T20:18:51.356Z,5.19
2023-01-10T20:21:19.372Z,5.19
2023-01-10T20:23:46.391Z,5.17
2023-01-10T20:26:16.244Z,5.09
2023-01-10T20:28:44.230Z,5.20
2023-01-10T20:31:15.488Z,5.20
2023-01-10T20:33:42.368Z,5.22
2023-01-10T20:36:12.802Z,5.21
2023-01-10T20:38:39.901Z,5.23
2023-01-10T20:41:11.244Z,5.25
2023-01-10T20:43:38.524Z,5.27
2023-01-10T20:46:12.926Z,5.27
2023-01-10T20:48:40.821Z,5.29
2023-01-10T20:51:10.843Z,5.25
2023-01-10T20:53:37.685Z,5.24
2023-01-10T20:56:11.263Z,5.25
2023-01-10T20:58:39.792Z,5.24
2023-01-10T21:01:07.409Z,5.26
2023-01-10T21:03:34.324Z,5.24
2023-01-10T21:06:01.824Z,5.26
2023-01-10T21:08:31.358Z,5.28
2023-01-10T21:10:58.571Z,5.34
2023-01-10T21:13:26.036Z,5.35
2023-01-10T21:15:57.388Z,5.37
2023-01-10T21:18:26.979Z,5.37
2023-01-10T21:20:55.606Z,5.36
2023-01-10T21:23:24.415Z,5.36
2023-01-10T21:25:52.882Z,5.34
2023-01-10T21:28:20.253Z,5.37
2023-01-10T21:30:47.224Z,5.36
2023-01-10T21:33:14.015Z,5.39
2023-01-10T21:35:40.729Z,5.44
2023-01-10T21:38:07.331Z,5.46
2023-01-10T21:40:34.417Z,5.47
2023-01-10T21:43:01.037Z,5.48
2023-01-10T21:45:28.603Z,5.48
2023-01-10T21:47:55.763Z,5.49
2023-01-10T21:50:22.725Z,5.50
2023-01-10T21:52:49.588Z,5.53
2023-01-10T21:55:16.859Z,5.51
2023-01-10T21:57:43.573Z,5.54
2023-01-10T22:00:10.900Z,5.53
2023-01-10T22:02:40.771Z,5.56
2023-01-10T22:05:08.328Z,5.56
2023-01-10T22:07:35.037Z,5.52
2023-01-10T22:10:01.781Z,5.56
2023-01-10T22:12:30.605Z,5.55
2023-01-10T22:14:57.604Z,5.56
2023-01-10T22:17:24.849Z,5.56
2023-01-10T22:19:51.798Z,5.55
2023-01-10T22:22:18.991Z,5.57
2023-01-10T22:24:47.982Z,5.55
2023-01-10T22:27:16.027Z,5.57
2023-01-10T22:29:43.441Z,5.55
2023-01-10T22:32:10.148Z,5.57
2023-01-10T22:34:36.892Z,5.57
2023-01-10T22:37:03.575Z,5.59
2023-01-10T22:39:30.241Z,5.61
2023-01-10T22:41:57.015Z,5.62
2023-01-10T22:44:26.765Z,5.64
2023-01-10T22:46:55.592Z,5.67
2023-01-10T22:49:22.900Z,5.67
2023-01-10T22:51:50.010Z,5.71
2023-01-10T22:54:17.068Z,5.71
2023-01-10T22:56:44.871Z,5.73
2023-01-10T22:59:11.928Z,5.73
2023-01-10T23:01:39.227Z,5.74
2023-01-10T23:04:06.347Z,5.71
2023-01-10T23:06:33.062Z,5.68
2023-01-10T23:08:59.824Z,5.69
2023-01-10T23:11:26.446Z,5.67
2023-01-10T23:13:53.181Z,5.68
2023-01-10T23:16:28.830Z,5.70
2023-01-10T23:18:57.281Z,5.67
2023-01-10T23:21:24.696Z,5.68
2023-01-10T23:23:51.378Z,5.67
2023-01-10T23:26:18.508Z,5.67
2023-01-10T23:28:50.125Z,5.65
2023-01-10T23:31:22.356Z,5.64
2023-01-10T23:33:50.504Z,5.67
2023-01-10T23:36:17.721Z,5.68
2023-01-10T23:38:44.832Z,5.69
2023-01-10T23:41:11.571Z,5.70
2023-01-10T23:43:38.227Z,5.69
2023-01-10T23:46:06.155Z,5.67
2023-01-10T23:48:33.092Z,5.70
2023-01-10T23:51:00.113Z,5.75
2023-01-10T23:53:27.153Z,5.78
2023-01-10T23:55:54.116Z,5.79
2023-01-10T23:58:20.781Z,5.76
